Antonito, Colorado
Current Conditions -  °F | °C
As of 8:52 AM on Thursday 29 Jan 2015 (Local Time) from KALS Reporting Station
Broken Clouds Broken Clouds  
Wind Chill: 32°   Ceiling: 12000
Heat Index: 32°   Visibility: 10mi
Dew Point: 22°   Wind: 3mph
Humidity: 66%   Direction: 30°NNE
Pressure: 30.42"   Gusts: NA
Location:  37.08°N, 106.01°W
Report Text: KALS 291552Z AUTO 03003KT 10SM BKN120 00/M06 A3042 RMK AO2 SLP313 T00001056
Loading
Personal Weather Stations






























Interactive Weather Map New forecast layout! Learn more

10-Day Weather Forecast

Advertisements
Track Severe Weather on mobile